sensor_id;sensor_type;location;lat;lon;timestamp;P1;durP1;ratioP1;P2;durP2;ratioP2
8594;SDS011;4335;48.860;9.198;2023-06-04T00:01:48;6.23;;;3.97;;
8594;SDS011;4335;48.860;9.198;2023-06-04T00:04:17;4.90;;;4.33;;
8594;SDS011;4335;48.860;9.198;2023-06-04T00:06:44;8.07;;;4.20;;
8594;SDS011;4335;48.860;9.198;2023-06-04T00:09:14;6.40;;;3.90;;
8594;SDS011;4335;48.860;9.198;2023-06-04T00:11:50;5.27;;;3.67;;
8594;SDS011;4335;48.860;9.198;2023-06-04T00:14:16;4.23;;;3.60;;
8594;SDS011;4335;48.860;9.198;2023-06-04T00:16:43;6.40;;;4.23;;
8594;SDS011;4335;48.860;9.198;2023-06-04T00:19:10;8.53;;;4.73;;
8594;SDS011;4335;48.860;9.198;2023-06-04T00:21:40;4.80;;;3.90;;
8594;SDS011;4335;48.860;9.198;2023-06-04T00:24:07;4.67;;;4.10;;
8594;SDS011;4335;48.860;9.198;2023-06-04T00:26:34;4.80;;;3.90;;
8594;SDS011;4335;48.860;9.198;2023-06-04T00:29:01;4.53;;;3.60;;
8594;SDS011;4335;48.860;9.198;2023-06-04T00:31:30;4.70;;;3.60;;
8594;SDS011;4335;48.860;9.198;2023-06-04T00:34:00;4.20;;;3.60;;
8594;SDS011;4335;48.860;9.198;2023-06-04T00:36:27;5.33;;;4.23;;
8594;SDS011;4335;48.860;9.198;2023-06-04T00:38:53;4.10;;;3.70;;
8594;SDS011;4335;48.860;9.198;2023-06-04T00:41:24;4.50;;;3.87;;
8594;SDS011;4335;48.860;9.198;2023-06-04T00:43:51;5.23;;;4.10;;
8594;SDS011;4335;48.860;9.198;2023-06-04T00:46:29;4.63;;;4.13;;
8594;SDS011;4335;48.860;9.198;2023-06-04T00:48:56;4.23;;;3.83;;
8594;SDS011;4335;48.860;9.198;2023-06-04T00:51:23;3.93;;;3.23;;
8594;SDS011;4335;48.860;9.198;2023-06-04T00:53:54;4.37;;;3.67;;
8594;SDS011;4335;48.860;9.198;2023-06-04T00:56:24;3.30;;;3.00;;
8594;SDS011;4335;48.860;9.198;2023-06-04T00:58:56;4.07;;;3.37;;
8594;SDS011;4335;48.860;9.198;2023-06-04T01:01:25;4.73;;;3.10;;
8594;SDS011;4335;48.860;9.198;2023-06-04T01:03:57;6.67;;;4.20;;
8594;SDS011;4335;48.860;9.198;2023-06-04T01:06:28;6.40;;;3.70;;
8594;SDS011;4335;48.860;9.198;2023-06-04T01:09:01;3.77;;;3.37;;
8594;SDS011;4335;48.860;9.198;2023-06-04T01:11:33;6.20;;;3.47;;
8594;SDS011;4335;48.860;9.198;2023-06-04T01:14:04;6.30;;;3.73;;
8594;SDS011;4335;48.860;9.198;2023-06-04T01:16:39;4.57;;;3.43;;
8594;SDS011;4335;48.860;9.198;2023-06-04T01:19:11;4.90;;;3.40;;
8594;SDS011;4335;48.860;9.198;2023-06-04T01:22:01;4.20;;;3.17;;
8594;SDS011;4335;48.860;9.198;2023-06-04T01:24:30;3.57;;;3.00;;
8594;SDS011;4335;48.860;9.198;2023-06-04T01:27:05;4.50;;;3.17;;
8594;SDS011;4335;48.860;9.198;2023-06-04T01:29:32;3.80;;;2.80;;
8594;SDS011;4335;48.860;9.198;2023-06-04T01:32:04;5.77;;;3.40;;
8594;SDS011;4335;48.860;9.198;2023-06-04T01:34:41;3.30;;;3.00;;
8594;SDS011;4335;48.860;9.198;2023-06-04T01:37:09;5.30;;;3.40;;
8594;SDS011;4335;48.860;9.198;2023-06-04T01:39:37;3.50;;;2.90;;
8594;SDS011;4335;48.860;9.198;2023-06-04T01:42:10;5.93;;;2.90;;
8594;SDS011;4335;48.860;9.198;2023-06-04T01:44:37;4.33;;;3.10;;
8594;SDS011;4335;48.860;9.198;2023-06-04T01:47:04;3.27;;;2.90;;
8594;SDS011;4335;48.860;9.198;2023-06-04T01:49:31;4.83;;;3.07;;
8594;SDS011;4335;48.860;9.198;2023-06-04T01:51:57;5.53;;;3.03;;
8594;SDS011;4335;48.860;9.198;2023-06-04T01:54:24;4.80;;;3.07;;
8594;SDS011;4335;48.860;9.198;2023-06-04T01:56:51;3.80;;;3.23;;
8594;SDS011;4335;48.860;9.198;2023-06-04T01:59:18;5.13;;;2.60;;
8594;SDS011;4335;48.860;9.198;2023-06-04T02:01:45;3.03;;;2.50;;
8594;SDS011;4335;48.860;9.198;2023-06-04T02:04:14;4.47;;;2.87;;
8594;SDS011;4335;48.860;9.198;2023-06-04T02:06:41;5.90;;;2.90;;
8594;SDS011;4335;48.860;9.198;2023-06-04T02:09:11;3.07;;;2.50;;
8594;SDS011;4335;48.860;9.198;2023-06-04T02:11:39;3.60;;;2.80;;
8594;SDS011;4335;48.860;9.198;2023-06-04T02:14:05;3.70;;;2.70;;
8594;SDS011;4335;48.860;9.198;2023-06-04T02:16:36;4.27;;;2.50;;
8594;SDS011;4335;48.860;9.198;2023-06-04T02:19:03;2.97;;;2.30;;
8594;SDS011;4335;48.860;9.198;2023-06-04T02:21:30;4.50;;;2.40;;
8594;SDS011;4335;48.860;9.198;2023-06-04T02:23:56;5.80;;;2.93;;
8594;SDS011;4335;48.860;9.198;2023-06-04T02:26:23;4.93;;;2.57;;
8594;SDS011;4335;48.860;9.198;2023-06-04T02:28:53;4.37;;;2.37;;
8594;SDS011;4335;48.860;9.198;2023-06-04T02:31:19;2.67;;;2.30;;
8594;SDS011;4335;48.860;9.198;2023-06-04T02:33:47;3.53;;;2.50;;
8594;SDS011;4335;48.860;9.198;2023-06-04T02:36:13;3.00;;;2.40;;
8594;SDS011;4335;48.860;9.198;2023-06-04T02:38:48;3.73;;;2.50;;
8594;SDS011;4335;48.860;9.198;2023-06-04T02:41:19;3.53;;;2.77;;
8594;SDS011;4335;48.860;9.198;2023-06-04T02:43:52;4.07;;;2.87;;
8594;SDS011;4335;48.860;9.198;2023-06-04T02:46:19;2.90;;;2.60;;
8594;SDS011;4335;48.860;9.198;2023-06-04T02:48:52;3.87;;;2.40;;
8594;SDS011;4335;48.860;9.198;2023-06-04T02:51:19;2.73;;;2.20;;
8594;SDS011;4335;48.860;9.198;2023-06-04T02:53:46;3.70;;;2.70;;
8594;SDS011;4335;48.860;9.198;2023-06-04T02:56:15;3.13;;;2.63;;
8594;SDS011;4335;48.860;9.198;2023-06-04T02:58:48;2.70;;;2.50;;
8594;SDS011;4335;48.860;9.198;2023-06-04T03:01:26;5.00;;;2.70;;
8594;SDS011;4335;48.860;9.198;2023-06-04T03:03:57;3.00;;;2.50;;
8594;SDS011;4335;48.860;9.198;2023-06-04T03:06:24;5.53;;;2.70;;
8594;SDS011;4335;48.860;9.198;2023-06-04T03:08:51;3.17;;;2.43;;
8594;SDS011;4335;48.860;9.198;2023-06-04T03:11:21;3.27;;;2.27;;
8594;SDS011;4335;48.860;9.198;2023-06-04T03:13:53;5.57;;;3.20;;
8594;SDS011;4335;48.860;9.198;2023-06-04T03:16:20;3.30;;;2.90;;
8594;SDS011;4335;48.860;9.198;2023-06-04T03:18:47;6.27;;;3.10;;
8594;SDS011;4335;48.860;9.198;2023-06-04T03:21:17;3.70;;;2.90;;
8594;SDS011;4335;48.860;9.198;2023-06-04T03:23:50;4.10;;;2.47;;
8594;SDS011;4335;48.860;9.198;2023-06-04T03:26:17;3.30;;;2.60;;
8594;SDS011;4335;48.860;9.198;2023-06-04T03:28:43;3.47;;;2.93;;
8594;SDS011;4335;48.860;9.198;2023-06-04T03:31:13;4.63;;;2.80;;
8594;SDS011;4335;48.860;9.198;2023-06-04T03:33:43;3.10;;;2.27;;
8594;SDS011;4335;48.860;9.198;2023-06-04T03:36:10;3.70;;;2.77;;
8594;SDS011;4335;48.860;9.198;2023-06-04T03:38:40;4.50;;;2.93;;
8594;SDS011;4335;48.860;9.198;2023-06-04T03:41:06;3.67;;;2.77;;
8594;SDS011;4335;48.860;9.198;2023-06-04T03:43:41;3.90;;;2.50;;
8594;SDS011;4335;48.860;9.198;2023-06-04T03:46:10;3.57;;;2.43;;
8594;SDS011;4335;48.860;9.198;2023-06-04T03:48:37;6.03;;;2.50;;
8594;SDS011;4335;48.860;9.198;2023-06-04T03:51:04;3.30;;;2.50;;
8594;SDS011;4335;48.860;9.198;2023-06-04T03:53:36;4.63;;;2.60;;
8594;SDS011;4335;48.860;9.198;2023-06-04T03:56:04;3.47;;;2.30;;
8594;SDS011;4335;48.860;9.198;2023-06-04T03:58:34;4.90;;;3.30;;
8594;SDS011;4335;48.860;9.198;2023-06-04T04:01:02;3.80;;;2.60;;
8594;SDS011;4335;48.860;9.198;2023-06-04T04:03:33;2.73;;;2.40;;
8594;SDS011;4335;48.860;9.198;2023-06-04T04:06:01;4.30;;;2.10;;
8594;SDS011;4335;48.860;9.198;2023-06-04T04:08:27;2.93;;;2.57;;
8594;SDS011;4335;48.860;9.198;2023-06-04T04:10:59;3.23;;;2.50;;
8594;SDS011;4335;48.860;9.198;2023-06-04T04:13:30;4.27;;;2.43;;
8594;SDS011;4335;48.860;9.198;2023-06-04T04:16:00;3.60;;;2.50;;
8594;SDS011;4335;48.860;9.198;2023-06-04T04:18:26;3.60;;;2.60;;
8594;SDS011;4335;48.860;9.198;2023-06-04T04:20:58;2.77;;;2.40;;
8594;SDS011;4335;48.860;9.198;2023-06-04T04:23:30;3.50;;;2.50;;
8594;SDS011;4335;48.860;9.198;2023-06-04T04:25:58;3.87;;;2.20;;
8594;SDS011;4335;48.860;9.198;2023-06-04T04:28:25;3.80;;;2.60;;
8594;SDS011;4335;48.860;9.198;2023-06-04T04:30:54;3.57;;;2.90;;
8594;SDS011;4335;48.860;9.198;2023-06-04T04:33:22;4.27;;;2.60;;
8594;SDS011;4335;48.860;9.198;2023-06-04T04:35:49;4.80;;;2.70;;
8594;SDS011;4335;48.860;9.198;2023-06-04T04:38:23;3.40;;;2.43;;
8594;SDS011;4335;48.860;9.198;2023-06-04T04:40:49;4.63;;;2.47;;
8594;SDS011;4335;48.860;9.198;2023-06-04T04:43:17;3.40;;;2.60;;
8594;SDS011;4335;48.860;9.198;2023-06-04T04:45:45;4.03;;;2.40;;
8594;SDS011;4335;48.860;9.198;2023-06-04T04:48:12;3.80;;;2.13;;
8594;SDS011;4335;48.860;9.198;2023-06-04T04:50:39;3.67;;;2.67;;
8594;SDS011;4335;48.860;9.198;2023-06-04T04:53:15;3.23;;;2.20;;
8594;SDS011;4335;48.860;9.198;2023-06-04T04:55:41;3.17;;;2.03;;
8594;SDS011;4335;48.860;9.198;2023-06-04T04:58:17;2.73;;;2.40;;
8594;SDS011;4335;48.860;9.198;2023-06-04T05:00:47;3.13;;;2.40;;
8594;SDS011;4335;48.860;9.198;2023-06-04T05:03:14;3.27;;;2.33;;
8594;SDS011;4335;48.860;9.198;2023-06-04T05:05:41;4.63;;;2.53;;
8594;SDS011;4335;48.860;9.198;2023-06-04T05:08:11;3.10;;;2.20;;
8594;SDS011;4335;48.860;9.198;2023-06-04T05:10:38;2.90;;;2.40;;
8594;SDS011;4335;48.860;9.198;2023-06-04T05:13:08;2.27;;;1.90;;
8594;SDS011;4335;48.860;9.198;2023-06-04T05:15:42;3.40;;;2.10;;
8594;SDS011;4335;48.860;9.198;2023-06-04T05:18:08;3.30;;;2.37;;
8594;SDS011;4335;48.860;9.198;2023-06-04T05:20:36;2.50;;;2.00;;
8594;SDS011;4335;48.860;9.198;2023-06-04T05:23:06;3.23;;;2.30;;
8594;SDS011;4335;48.860;9.198;2023-06-04T05:25:32;4.70;;;2.20;;
8594;SDS011;4335;48.860;9.198;2023-06-04T05:28:02;2.47;;;1.93;;
8594;SDS011;4335;48.860;9.198;2023-06-04T05:30:31;3.80;;;1.90;;
8594;SDS011;4335;48.860;9.198;2023-06-04T05:32:58;2.40;;;2.20;;
8594;SDS011;4335;48.860;9.198;2023-06-04T05:35:25;2.50;;;2.13;;
8594;SDS011;4335;48.860;9.198;2023-06-04T05:37:53;3.20;;;2.20;;
8594;SDS011;4335;48.860;9.198;2023-06-04T05:40:19;3.20;;;2.13;;
8594;SDS011;4335;48.860;9.198;2023-06-04T05:42:47;2.67;;;2.17;;
8594;SDS011;4335;48.860;9.198;2023-06-04T05:45:18;2.20;;;2.00;;
8594;SDS011;4335;48.860;9.198;2023-06-04T05:47:57;3.87;;;1.90;;
8594;SDS011;4335;48.860;9.198;2023-06-04T05:50:27;2.67;;;1.90;;
8594;SDS011;4335;48.860;9.198;2023-06-04T05:53:02;4.07;;;2.30;;
8594;SDS011;4335;48.860;9.198;2023-06-04T05:55:35;1.93;;;1.80;;
8594;SDS011;4335;48.860;9.198;2023-06-04T05:58:04;3.67;;;1.80;;
8594;SDS011;4335;48.860;9.198;2023-06-04T06:00:31;2.93;;;2.30;;
8594;SDS011;4335;48.860;9.198;2023-06-04T06:02:57;3.53;;;2.10;;
8594;SDS011;4335;48.860;9.198;2023-06-04T06:05:27;3.30;;;2.63;;
8594;SDS011;4335;48.860;9.198;2023-06-04T06:07:58;2.20;;;2.00;;
8594;SDS011;4335;48.860;9.198;2023-06-04T06:10:24;2.20;;;2.00;;
8594;SDS011;4335;48.860;9.198;2023-06-04T06:12:51;3.17;;;2.00;;
8594;SDS011;4335;48.860;9.198;2023-06-04T06:15:17;3.03;;;2.17;;
8594;SDS011;4335;48.860;9.198;2023-06-04T06:17:44;3.13;;;2.23;;
8594;SDS011;4335;48.860;9.198;2023-06-04T06:20:14;2.47;;;2.20;;
8594;SDS011;4335;48.860;9.198;2023-06-04T06:22:43;3.07;;;2.10;;
8594;SDS011;4335;48.860;9.198;2023-06-04T06:25:10;3.43;;;2.10;;
8594;SDS011;4335;48.860;9.198;2023-06-04T06:27:41;2.73;;;2.43;;
8594;SDS011;4335;48.860;9.198;2023-06-04T06:30:11;3.43;;;2.20;;
8594;SDS011;4335;48.860;9.198;2023-06-04T06:32:39;3.80;;;2.30;;
8594;SDS011;4335;48.860;9.198;2023-06-04T06:35:06;2.57;;;2.10;;
8594;SDS011;4335;48.860;9.198;2023-06-04T06:37:36;2.60;;;2.10;;
8594;SDS011;4335;48.860;9.198;2023-06-04T06:40:07;4.33;;;1.90;;
8594;SDS011;4335;48.860;9.198;2023-06-04T06:42:35;3.87;;;1.90;;
8594;SDS011;4335;48.860;9.198;2023-06-04T06:45:02;2.93;;;2.63;;
8594;SDS011;4335;48.860;9.198;2023-06-04T06:47:29;3.43;;;2.30;;
8594;SDS011;4335;48.860;9.198;2023-06-04T06:49:59;4.73;;;2.67;;
8594;SDS011;4335;48.860;9.198;2023-06-04T06:52:26;2.20;;;2.00;;
8594;SDS011;4335;48.860;9.198;2023-06-04T06:54:55;7.65;;;5.93;;
8594;SDS011;4335;48.860;9.198;2023-06-04T06:57:22;2.35;;;2.15;;
8594;SDS011;4335;48.860;9.198;2023-06-04T06:59:52;3.78;;;2.38;;
8594;SDS011;4335;48.860;9.198;2023-06-04T07:02:19;2.65;;;2.45;;
8594;SDS011;4335;48.860;9.198;2023-06-04T07:04:46;3.65;;;2.33;;
8594;SDS011;4335;48.860;9.198;2023-06-04T07:07:16;3.85;;;2.45;;
8594;SDS011;4335;48.860;9.198;2023-06-04T07:09:45;2.70;;;2.00;;
8594;SDS011;4335;48.860;9.198;2023-06-04T07:12:12;3.08;;;2.40;;
8594;SDS011;4335;48.860;9.198;2023-06-04T07:14:41;2.72;;;2.10;;
8594;SDS011;4335;48.860;9.198;2023-06-04T07:17:12;3.03;;;2.40;;
8594;SDS011;4335;48.860;9.198;2023-06-04T07:19:38;6.03;;;4.15;;
8594;SDS011;4335;48.860;9.198;2023-06-04T07:22:08;2.92;;;2.20;;
8594;SDS011;4335;48.860;9.198;2023-06-04T07:24:35;3.58;;;2.25;;
8594;SDS011;4335;48.860;9.198;2023-06-04T07:27:17;3.17;;;2.28;;
8594;SDS011;4335;48.860;9.198;2023-06-04T07:29:44;2.58;;;2.03;;
8594;SDS011;4335;48.860;9.198;2023-06-04T07:32:15;2.55;;;2.35;;
8594;SDS011;4335;48.860;9.198;2023-06-04T07:34:42;3.88;;;3.13;;
8594;SDS011;4335;48.860;9.198;2023-06-04T07:37:09;2.22;;;2.03;;
8594;SDS011;4335;48.860;9.198;2023-06-04T07:39:36;3.00;;;2.08;;
8594;SDS011;4335;48.860;9.198;2023-06-04T07:42:04;3.72;;;2.30;;
8594;SDS011;4335;48.860;9.198;2023-06-04T07:44:32;3.78;;;2.30;;
8594;SDS011;4335;48.860;9.198;2023-06-04T07:46:59;4.32;;;3.20;;
8594;SDS011;4335;48.860;9.198;2023-06-04T07:49:38;3.00;;;2.05;;
8594;SDS011;4335;48.860;9.198;2023-06-04T07:52:05;3.17;;;2.10;;
8594;SDS011;4335;48.860;9.198;2023-06-04T07:54:32;3.35;;;2.10;;
8594;SDS011;4335;48.860;9.198;2023-06-04T07:57:03;4.32;;;2.10;;
8594;SDS011;4335;48.860;9.198;2023-06-04T07:59:49;2.92;;;2.20;;
8594;SDS011;4335;48.860;9.198;2023-06-04T08:02:19;3.05;;;2.38;;
8594;SDS011;4335;48.860;9.198;2023-06-04T08:04:49;2.65;;;2.20;;
8594;SDS011;4335;48.860;9.198;2023-06-04T08:07:16;4.03;;;2.08;;
8594;SDS011;4335;48.860;9.198;2023-06-04T08:09:42;2.97;;;1.80;;
8594;SDS011;4335;48.860;9.198;2023-06-04T08:12:10;4.13;;;2.20;;
8594;SDS011;4335;48.860;9.198;2023-06-04T08:14:37;2.55;;;2.35;;
8594;SDS011;4335;48.860;9.198;2023-06-04T08:17:04;2.67;;;2.08;;
8594;SDS011;4335;48.860;9.198;2023-06-04T08:19:30;3.78;;;2.00;;
8594;SDS011;4335;48.860;9.198;2023-06-04T08:22:00;2.60;;;2.40;;
8594;SDS011;4335;48.860;9.198;2023-06-04T08:24:27;2.72;;;2.08;;
8594;SDS011;4335;48.860;9.198;2023-06-04T08:27:00;3.55;;;2.15;;
8594;SDS011;4335;48.860;9.198;2023-06-04T08:29:26;2.83;;;2.17;;
8594;SDS011;4335;48.860;9.198;2023-06-04T08:31:53;3.22;;;2.33;;
8594;SDS011;4335;48.860;9.198;2023-06-04T08:34:20;2.30;;;2.10;;
8594;SDS011;4335;48.860;9.198;2023-06-04T08:36:46;2.90;;;2.38;;
8594;SDS011;4335;48.860;9.198;2023-06-04T08:39:20;3.35;;;2.40;;
8594;SDS011;4335;48.860;9.198;2023-06-04T08:41:51;3.35;;;2.22;;
8594;SDS011;4335;48.860;9.198;2023-06-04T08:44:20;2.65;;;2.20;;
8594;SDS011;4335;48.860;9.198;2023-06-04T08:46:54;5.20;;;2.03;;
8594;SDS011;4335;48.860;9.198;2023-06-04T08:49:29;2.63;;;2.20;;
8594;SDS011;4335;48.860;9.198;2023-06-04T08:52:00;2.20;;;1.80;;
8594;SDS011;4335;48.860;9.198;2023-06-04T08:54:32;2.55;;;2.35;;
8594;SDS011;4335;48.860;9.198;2023-06-04T08:57:00;2.75;;;1.95;;
8594;SDS011;4335;48.860;9.198;2023-06-04T08:59:27;3.38;;;2.25;;
8594;SDS011;4335;48.860;9.198;2023-06-04T09:01:54;2.22;;;1.95;;
8594;SDS011;4335;48.860;9.198;2023-06-04T09:04:21;3.47;;;2.13;;
8594;SDS011;4335;48.860;9.198;2023-06-04T09:06:51;2.45;;;2.25;;
8594;SDS011;4335;48.860;9.198;2023-06-04T09:09:19;2.55;;;2.20;;
8594;SDS011;4335;48.860;9.198;2023-06-04T09:11:50;2.65;;;2.42;;
8594;SDS011;4335;48.860;9.198;2023-06-04T09:14:18;2.40;;;2.15;;
8594;SDS011;4335;48.860;9.198;2023-06-04T09:16:45;2.45;;;2.20;;
8594;SDS011;4335;48.860;9.198;2023-06-04T09:19:13;2.75;;;2.25;;
8594;SDS011;4335;48.860;9.198;2023-06-04T09:21:52;2.55;;;2.08;;
8594;SDS011;4335;48.860;9.198;2023-06-04T09:24:20;2.50;;;2.05;;
8594;SDS011;4335;48.860;9.198;2023-06-04T09:26:49;4.07;;;2.60;;
8594;SDS011;4335;48.860;9.198;2023-06-04T09:29:16;2.50;;;2.30;;
8594;SDS011;4335;48.860;9.198;2023-06-04T09:31:44;3.92;;;2.05;;
8594;SDS011;4335;48.860;9.198;2023-06-04T09:34:12;2.47;;;2.28;;
8594;SDS011;4335;48.860;9.198;2023-06-04T09:36:41;4.15;;;2.55;;
8594;SDS011;4335;48.860;9.198;2023-06-04T09:39:17;2.58;;;2.25;;
8594;SDS011;4335;48.860;9.198;2023-06-04T09:41:44;4.03;;;2.28;;
8594;SDS011;4335;48.860;9.198;2023-06-04T09:44:30;2.53;;;2.33;;
8594;SDS011;4335;48.860;9.198;2023-06-04T09:47:08;2.20;;;2.00;;
8594;SDS011;4335;48.860;9.198;2023-06-04T09:49:40;3.15;;;2.13;;
8594;SDS011;4335;48.860;9.198;2023-06-04T09:52:08;4.45;;;2.60;;
8594;SDS011;4335;48.860;9.198;2023-06-04T09:54:35;2.78;;;2.40;;
8594;SDS011;4335;48.860;9.198;2023-06-04T09:57:13;3.47;;;2.50;;
8594;SDS011;4335;48.860;9.198;2023-06-04T09:59:41;3.22;;;2.17;;
8594;SDS011;4335;48.860;9.198;2023-06-04T10:02:10;3.65;;;2.15;;
8594;SDS011;4335;48.860;9.198;2023-06-04T10:04:41;2.85;;;2.30;;
8594;SDS011;4335;48.860;9.198;2023-06-04T10:07:08;2.60;;;2.40;;
8594;SDS011;4335;48.860;9.198;2023-06-04T10:09:38;3.28;;;2.80;;
8594;SDS011;4335;48.860;9.198;2023-06-04T10:12:11;2.67;;;2.22;;
8594;SDS011;4335;48.860;9.198;2023-06-04T10:14:41;3.33;;;2.92;;
8594;SDS011;4335;48.860;9.198;2023-06-04T10:17:12;4.32;;;2.35;;
8594;SDS011;4335;48.860;9.198;2023-06-04T10:19:39;3.38;;;2.40;;
8594;SDS011;4335;48.860;9.198;2023-06-04T10:22:09;2.80;;;2.60;;
8594;SDS011;4335;48.860;9.198;2023-06-04T10:24:39;3.38;;;2.80;;
8594;SDS011;4335;48.860;9.198;2023-06-04T10:27:09;2.75;;;2.40;;
8594;SDS011;4335;48.860;9.198;2023-06-04T10:29:41;2.72;;;2.35;;
8594;SDS011;4335;48.860;9.198;2023-06-04T10:32:08;2.70;;;2.40;;
8594;SDS011;4335;48.860;9.198;2023-06-04T10:34:38;3.35;;;2.50;;
8594;SDS011;4335;48.860;9.198;2023-06-04T10:37:05;3.50;;;2.55;;
8594;SDS011;4335;48.860;9.198;2023-06-04T10:39:35;4.65;;;3.00;;
8594;SDS011;4335;48.860;9.198;2023-06-04T10:42:02;4.75;;;2.53;;
8594;SDS011;4335;48.860;9.198;2023-06-04T10:44:31;4.93;;;3.10;;
8594;SDS011;4335;48.860;9.198;2023-06-04T10:47:17;3.30;;;3.00;;
8594;SDS011;4335;48.860;9.198;2023-06-04T10:49:51;3.65;;;2.85;;
8594;SDS011;4335;48.860;9.198;2023-06-04T10:52:18;6.90;;;2.83;;
8594;SDS011;4335;48.860;9.198;2023-06-04T10:54:46;3.42;;;2.58;;
8594;SDS011;4335;48.860;9.198;2023-06-04T10:57:14;5.30;;;3.38;;
8594;SDS011;4335;48.860;9.198;2023-06-04T10:59:55;2.75;;;2.47;;
8594;SDS011;4335;48.860;9.198;2023-06-04T11:02:25;4.63;;;2.88;;
8594;SDS011;4335;48.860;9.198;2023-06-04T11:04:59;3.58;;;3.20;;
8594;SDS011;4335;48.860;9.198;2023-06-04T11:07:40;6.72;;;4.25;;
8594;SDS011;4335;48.860;9.198;2023-06-04T11:10:08;3.20;;;2.92;;
8594;SDS011;4335;48.860;9.198;2023-06-04T11:12:41;4.57;;;3.38;;
8594;SDS011;4335;48.860;9.198;2023-06-04T11:15:14;5.72;;;3.35;;
8594;SDS011;4335;48.860;9.198;2023-06-04T11:17:54;3.60;;;2.87;;
8594;SDS011;4335;48.860;9.198;2023-06-04T11:20:26;4.20;;;2.80;;
8594;SDS011;4335;48.860;9.198;2023-06-04T11:22:56;3.17;;;2.87;;
8594;SDS011;4335;48.860;9.198;2023-06-04T11:25:25;3.07;;;2.77;;
8594;SDS011;4335;48.860;9.198;2023-06-04T11:27:52;5.87;;;3.20;;
8594;SDS011;4335;48.860;9.198;2023-06-04T11:30:21;4.40;;;3.13;;
8594;SDS011;4335;48.860;9.198;2023-06-04T11:32:48;4.43;;;3.50;;
8594;SDS011;4335;48.860;9.198;2023-06-04T11:35:15;4.17;;;3.63;;
8594;SDS011;4335;48.860;9.198;2023-06-04T11:37:52;4.63;;;3.57;;
8594;SDS011;4335;48.860;9.198;2023-06-04T11:40:20;4.53;;;2.80;;
8594;SDS011;4335;48.860;9.198;2023-06-04T11:42:47;4.53;;;2.87;;
8594;SDS011;4335;48.860;9.198;2023-06-04T11:45:24;3.53;;;2.90;;
8594;SDS011;4335;48.860;9.198;2023-06-04T11:47:55;5.70;;;3.40;;
8594;SDS011;4335;48.860;9.198;2023-06-04T11:50:22;3.67;;;3.23;;
8594;SDS011;4335;48.860;9.198;2023-06-04T11:52:52;3.80;;;3.23;;
8594;SDS011;4335;48.860;9.198;2023-06-04T11:55:19;4.17;;;3.17;;
8594;SDS011;4335;48.860;9.198;2023-06-04T11:57:46;4.10;;;3.30;;
8594;SDS011;4335;48.860;9.198;2023-06-04T12:00:14;4.57;;;3.23;;
8594;SDS011;4335;48.860;9.198;2023-06-04T12:02:51;3.30;;;2.97;;
8594;SDS011;4335;48.860;9.198;2023-06-04T12:05:18;3.37;;;2.57;;
8594;SDS011;4335;48.860;9.198;2023-06-04T12:07:51;4.27;;;2.77;;
8594;SDS011;4335;48.860;9.198;2023-06-04T12:10:17;4.10;;;2.73;;
8594;SDS011;4335;48.860;9.198;2023-06-04T12:12:44;3.57;;;2.60;;
8594;SDS011;4335;48.860;9.198;2023-06-04T12:15:11;3.53;;;2.73;;
8594;SDS011;4335;48.860;9.198;2023-06-04T12:17:51;4.33;;;2.50;;
8594;SDS011;4335;48.860;9.198;2023-06-04T12:20:27;5.63;;;2.80;;
8594;SDS011;4335;48.860;9.198;2023-06-04T12:23:01;4.00;;;2.50;;
8594;SDS011;4335;48.860;9.198;2023-06-04T12:25:29;3.13;;;2.83;;
8594;SDS011;4335;48.860;9.198;2023-06-04T12:27:56;3.13;;;2.50;;
8594;SDS011;4335;48.860;9.198;2023-06-04T12:30:34;3.07;;;2.40;;
8594;SDS011;4335;48.860;9.198;2023-06-04T12:33:03;3.47;;;2.60;;
8594;SDS011;4335;48.860;9.198;2023-06-04T12:35:29;3.10;;;2.73;;
8594;SDS011;4335;48.860;9.198;2023-06-04T12:37:56;3.97;;;2.63;;
8594;SDS011;4335;48.860;9.198;2023-06-04T12:40:23;6.37;;;2.97;;
8594;SDS011;4335;48.860;9.198;2023-06-04T12:42:49;3.90;;;2.60;;
8594;SDS011;4335;48.860;9.198;2023-06-04T12:45:19;4.87;;;3.03;;
8594;SDS011;4335;48.860;9.198;2023-06-04T12:47:46;3.93;;;3.40;;
8594;SDS011;4335;48.860;9.198;2023-06-04T12:50:13;3.70;;;2.63;;
8594;SDS011;4335;48.860;9.198;2023-06-04T12:52:40;5.27;;;3.23;;
8594;SDS011;4335;48.860;9.198;2023-06-04T12:55:07;3.30;;;2.77;;
8594;SDS011;4335;48.860;9.198;2023-06-04T12:57:36;3.63;;;3.10;;
8594;SDS011;4335;48.860;9.198;2023-06-04T13:00:06;4.87;;;2.97;;
8594;SDS011;4335;48.860;9.198;2023-06-04T13:02:33;3.63;;;3.07;;
8594;SDS011;4335;48.860;9.198;2023-06-04T13:05:04;3.10;;;2.80;;
8594;SDS011;4335;48.860;9.198;2023-06-04T13:07:31;3.30;;;3.00;;
8594;SDS011;4335;48.860;9.198;2023-06-04T13:09:58;4.17;;;2.50;;
8594;SDS011;4335;48.860;9.198;2023-06-04T13:12:28;3.67;;;2.47;;
8594;SDS011;4335;48.860;9.198;2023-06-04T13:14:54;3.50;;;2.73;;
8594;SDS011;4335;48.860;9.198;2023-06-04T13:17:21;2.90;;;2.70;;
8594;SDS011;4335;48.860;9.198;2023-06-04T13:19:48;4.43;;;3.00;;
8594;SDS011;4335;48.860;9.198;2023-06-04T13:22:14;5.90;;;3.10;;
8594;SDS011;4335;48.860;9.198;2023-06-04T13:24:45;3.97;;;2.80;;
8594;SDS011;4335;48.860;9.198;2023-06-04T13:27:11;3.67;;;3.00;;
8594;SDS011;4335;48.860;9.198;2023-06-04T13:29:41;3.90;;;2.87;;
8594;SDS011;4335;48.860;9.198;2023-06-04T13:32:07;3.53;;;2.73;;
8594;SDS011;4335;48.860;9.198;2023-06-04T13:34:45;3.93;;;2.77;;
8594;SDS011;4335;48.860;9.198;2023-06-04T13:37:15;4.03;;;2.57;;
8594;SDS011;4335;48.860;9.198;2023-06-04T13:39:41;4.73;;;3.00;;
8594;SDS011;4335;48.860;9.198;2023-06-04T13:42:09;3.40;;;2.53;;
8594;SDS011;4335;48.860;9.198;2023-06-04T13:44:35;3.30;;;2.90;;
8594;SDS011;4335;48.860;9.198;2023-06-04T13:47:02;3.73;;;2.90;;
8594;SDS011;4335;48.860;9.198;2023-06-04T13:49:30;3.03;;;2.73;;
8594;SDS011;4335;48.860;9.198;2023-06-04T13:51:58;4.77;;;2.57;;
8594;SDS011;4335;48.860;9.198;2023-06-04T13:54:24;5.17;;;2.97;;
8594;SDS011;4335;48.860;9.198;2023-06-04T13:56:51;4.97;;;4.47;;
8594;SDS011;4335;48.860;9.198;2023-06-04T13:59:19;4.33;;;3.20;;
8594;SDS011;4335;48.860;9.198;2023-06-04T14:01:45;2.93;;;2.73;;
8594;SDS011;4335;48.860;9.198;2023-06-04T14:04:21;3.33;;;2.90;;
8594;SDS011;4335;48.860;9.198;2023-06-04T14:06:48;5.60;;;3.23;;
8594;SDS011;4335;48.860;9.198;2023-06-04T14:09:17;4.33;;;3.13;;
8594;SDS011;4335;48.860;9.198;2023-06-04T14:11:45;3.97;;;2.90;;
8594;SDS011;4335;48.860;9.198;2023-06-04T14:14:15;3.73;;;3.07;;
8594;SDS011;4335;48.860;9.198;2023-06-04T14:16:43;3.50;;;3.10;;
8594;SDS011;4335;48.860;9.198;2023-06-04T14:19:10;5.57;;;2.70;;
8594;SDS011;4335;48.860;9.198;2023-06-04T14:21:37;4.97;;;3.00;;
8594;SDS011;4335;48.860;9.198;2023-06-04T14:24:07;3.20;;;2.90;;
8594;SDS011;4335;48.860;9.198;2023-06-04T14:26:34;2.83;;;2.53;;
8594;SDS011;4335;48.860;9.198;2023-06-04T14:29:01;6.43;;;2.60;;
8594;SDS011;4335;48.860;9.198;2023-06-04T14:31:28;2.80;;;2.53;;
8594;SDS011;4335;48.860;9.198;2023-06-04T14:33:56;3.20;;;2.83;;
8594;SDS011;4335;48.860;9.198;2023-06-04T14:36:24;2.97;;;2.67;;
8594;SDS011;4335;48.860;9.198;2023-06-04T14:38:51;3.20;;;2.40;;
8594;SDS011;4335;48.860;9.198;2023-06-04T14:41:20;3.10;;;2.80;;
8594;SDS011;4335;48.860;9.198;2023-06-04T14:43:47;3.27;;;2.90;;
8594;SDS011;4335;48.860;9.198;2023-06-04T14:46:17;4.13;;;2.80;;
8594;SDS011;4335;48.860;9.198;2023-06-04T14:48:43;2.93;;;2.57;;
8594;SDS011;4335;48.860;9.198;2023-06-04T14:51:14;4.87;;;2.60;;
8594;SDS011;4335;48.860;9.198;2023-06-04T14:53:41;4.73;;;2.73;;
8594;SDS011;4335;48.860;9.198;2023-06-04T14:56:11;3.70;;;3.00;;
8594;SDS011;4335;48.860;9.198;2023-06-04T14:58:37;3.97;;;2.60;;
8594;SDS011;4335;48.860;9.198;2023-06-04T15:01:04;3.17;;;2.53;;
8594;SDS011;4335;48.860;9.198;2023-06-04T15:03:32;3.03;;;2.57;;
8594;SDS011;4335;48.860;9.198;2023-06-04T15:05:59;4.20;;;2.67;;
8594;SDS011;4335;48.860;9.198;2023-06-04T15:08:27;4.17;;;2.70;;
8594;SDS011;4335;48.860;9.198;2023-06-04T15:10:53;3.03;;;2.73;;
8594;SDS011;4335;48.860;9.198;2023-06-04T15:13:20;3.70;;;2.80;;
8594;SDS011;4335;48.860;9.198;2023-06-04T15:15:47;4.83;;;3.20;;
8594;SDS011;4335;48.860;9.198;2023-06-04T15:18:13;4.47;;;2.87;;
8594;SDS011;4335;48.860;9.198;2023-06-04T15:20:40;3.47;;;3.17;;
8594;SDS011;4335;48.860;9.198;2023-06-04T15:23:15;3.30;;;3.00;;
8594;SDS011;4335;48.860;9.198;2023-06-04T15:25:43;3.00;;;2.60;;
8594;SDS011;4335;48.860;9.198;2023-06-04T15:28:10;5.37;;;3.07;;